• Join FlightAware (Why Join?)
  • Login
  • US Flag 
06:25PM EDT


 

Airport Tracker/Info


-or-


 

Live Flight TrackerFlight Track Log ✈ CTL13 ✈ 04-Apr-2013 ✈ KEYE - KMDW

Flight Track Log - Related Links

Times and Time Zones

All times are in EDT time to prevent confusion due to time zone crossing. See the CTL13 flight status page for this flight to view local times or setup timezone preferences in your user account.

Time Position Orientation Groundspeed Altitude Reporting Facility
EDT Latitude Longitude Course Direction KTS MPH feet Rate Location/Type
08:24PM 39.9333 -86.3000 339° North 160 184 2,400  Level Indianapolis TRACON
08:25PM 39.9667 -86.3333 323° Northwest 159 183 3,000 480 Climbing Indianapolis TRACON
08:27PM 40.0225 -86.4131 312° West 161 185 3,900 360 Climbing Indianapolis Center
08:28PM 40.0550 -86.4533 317° Northwest 160 184 4,200 360 Climbing Indianapolis Center
08:29PM 40.0936 -86.4994 318° Northwest 160 184 4,700 420 Climbing Indianapolis Center
08:30PM 40.1261 -86.5375 318° Northwest 158 182 5,100 420 Climbing Indianapolis Center
08:31PM 40.1581 -86.5775 316° Northwest 157 181 5,600 360 Climbing Indianapolis Center
08:32PM 40.1853 -86.6108 317° Northwest 156 180 5,900 180 Climbing Chicago Center
08:33PM 40.2222 -86.6553 317° Northwest 155 178 6,000  Climbing Chicago Center
08:34PM 40.2631 -86.7028 318° Northwest 164 189 6,000  Level Chicago Center
08:35PM 40.2928 -86.7358 320° Northwest 166 191 6,000  Level Chicago Center
08:36PM 40.3311 -86.7861 315° West 163 188 6,000  Level Chicago Center
08:37PM 40.3567 -86.8181 316° Northwest 158 182 6,000  Level Chicago Center
08:38PM 40.3928 -86.8639 316° Northwest 156 180 6,000  Level Chicago Center
08:39PM 40.4192 -86.8967 317° Northwest 154 177 6,000  Level Chicago Center
08:40PM 40.4572 -86.9433 317° Northwest 157 181 6,000  Level Chicago Center
08:41PM 40.4864 -86.9822 315° West 156 180 6,000  Level Chicago Center
08:42PM 40.5181 -87.0225 316° Northwest 153 176 6,000  Level Chicago Center
08:43PM 40.5494 -87.0600 318° Northwest 150 173 6,000  Level Chicago Center
08:44PM 40.5839 -87.0917 325° Northwest 147 169 6,000  Level Chicago Center
08:45PM 40.6242 -87.1086 342° North 152 175 6,000  Level Chicago Center
08:46PM 40.6711 -87.1333 338° Northwest 152 175 6,000  Level Chicago Center
08:47PM 40.7103 -87.1544 338° Northwest 151 174 6,000  Level Chicago Center
08:48PM 40.7492 -87.1742 339° North 151 174 6,000  Level Chicago Center
08:49PM 40.7867 -87.1942 338° Northwest 148 170 6,000  Level Chicago Center
08:50PM 40.8231 -87.2136 338° Northwest 143 165 6,000  Level Chicago Center
08:51PM 40.8656 -87.2386 336° Northwest 141 162 6,000  Level Chicago Center
08:52PM 40.9044 -87.2564 341° North 146 168 6,000  Level Chicago Center
08:54PM 40.9419 -87.2756 339° North 146 168 6,000  Level Chicago Center
08:55PM 40.9783 -87.2969 336° Northwest 145 167 6,000 -60 Level Chicago Center
08:56PM 41.0156 -87.3167 338° Northwest 144 166 5,900 -60 Descending Chicago Center
08:57PM 41.0606 -87.3394 339° North 145 167 5,900  Level Chicago Center
08:58PM 41.0978 -87.3592 338° Northwest 144 166 5,900  Level Chicago Center
08:59PM 41.1347 -87.3797 337° Northwest 145 167 5,900  Level Chicago Center
09:00PM 41.1722 -87.3997 338° Northwest 145 167 5,900 -240 Level Chicago Center
09:01PM 41.2128 -87.4203 339° North 152 175 5,500 -600 Descending Chicago Center
09:02PM 41.2633 -87.4467 339° North 159 183 4,700 -720 Descending Chicago Center
09:03PM 41.3108 -87.4703 340° North 171 197 4,100 -420 Descending Chicago Center
09:04PM 41.3561 -87.4933 339° North 176 203 3,900 -120 Descending Chicago Center
09:05PM 41.3994 -87.5169 338° Northwest 174 200 3,900  Level Chicago Center
09:06PM 41.4456 -87.5219 355° North 171 197 3,900  Level Chicago Center
09:07PM 41.5017 -87.5275 356° North 171 197 3,900  Level Chicago Center
09:08PM 41.5394 -87.4861 39° Northeast 184 212 3,900  Level Chicago Center
09:09PM 41.5808 -87.4975 348° North 179 206 3,900  Level Chicago Center
09:10PM 41.6219 -87.5228 335° Northwest 169 194 3,900 -240 Level Chicago Center
09:11PM 41.6522 -87.5661 313° West 165 190 3,500 -660 Descending Chicago Center
09:12PM 41.6903 -87.6197 314° West 166 191 2,600 -780 Descending Chicago Center
09:13PM 41.7200 -87.6622 313° West 163 188 2,000 -480 Descending Chicago Center
09:14PM 41.7500 -87.7000 317° Northwest 142 163 1,700 -540 Descending Chicago TRACON
09:15PM 41.7667 -87.7333 304° West 101 116 1,000 -660 Descending Chicago TRACON
09:17PM 41.7833 -87.7500 334° Northwest  Level FlightAware Approximate